createdAt,value
2019-02-18T00:04:32.074Z,101573.05
2019-02-18T00:09:34.810Z,101577.00
2019-02-18T00:14:37.532Z,101579.49
2019-02-18T00:19:40.246Z,101582.10
2019-02-18T00:24:42.955Z,101576.45
2019-02-18T00:29:45.700Z,101583.00
2019-02-18T00:34:48.392Z,101576.07
2019-02-18T00:39:51.083Z,101569.63
2019-02-18T00:44:53.778Z,101563.65
2019-02-18T00:49:56.477Z,101566.31
2019-02-18T00:54:59.159Z,101564.13
2019-02-18T01:00:01.872Z,101564.99
2019-02-18T01:05:05.763Z,101567.68
2019-02-18T01:10:09.393Z,101565.55
2019-02-18T01:15:12.134Z,101566.53
2019-02-18T01:20:14.878Z,101573.25
2019-02-18T01:25:17.588Z,101565.21
2019-02-18T01:30:20.321Z,101568.79
2019-02-18T01:35:23.057Z,101568.86
2019-02-18T01:40:25.759Z,101561.00
2019-02-18T01:45:28.455Z,101547.12
2019-02-18T01:50:31.185Z,101554.08
2019-02-18T01:55:34.252Z,101552.33
2019-02-18T02:00:37.459Z,101539.70
2019-02-18T02:05:40.152Z,101538.87
2019-02-18T02:10:42.981Z,101538.95
2019-02-18T02:15:45.765Z,101540.25
2019-02-18T02:20:48.491Z,101540.70
2019-02-18T02:25:51.181Z,101540.32
2019-02-18T02:30:53.849Z,101535.15
2019-02-18T02:35:56.547Z,101533.88
2019-02-18T02:40:59.304Z,101527.37
2019-02-18T02:46:02.050Z,101539.00
2019-02-18T02:51:04.751Z,101532.42
2019-02-18T02:56:07.446Z,101529.32
2019-02-18T03:01:10.139Z,101538.02
2019-02-18T03:06:12.828Z,101536.27
2019-02-18T03:11:15.519Z,101542.36
2019-02-18T03:16:18.216Z,101538.92
2019-02-18T03:21:20.903Z,101531.12
2019-02-18T03:26:23.614Z,101545.95
2019-02-18T03:31:28.163Z,101542.94
2019-02-18T03:36:30.856Z,101535.59
2019-02-18T03:41:33.543Z,101540.85
2019-02-18T03:46:36.232Z,101536.99
2019-02-18T03:51:38.987Z,101536.61
2019-02-18T03:56:41.781Z,101535.32
2019-02-18T04:01:44.479Z,101535.84
2019-02-18T04:06:47.276Z,101539.73
2019-02-18T04:11:50.204Z,101534.14
2019-02-18T04:16:52.890Z,101536.75
2019-02-18T04:21:55.595Z,101530.69
2019-02-18T04:26:58.299Z,101538.05
2019-02-18T04:32:00.993Z,101532.45
2019-02-18T04:37:03.664Z,101532.45
2019-02-18T04:42:06.357Z,101529.84
2019-02-18T04:47:09.045Z,101522.05
2019-02-18T04:52:11.768Z,101526.80
2019-02-18T04:57:14.490Z,101519.44
2019-02-18T05:02:17.207Z,101523.36
2019-02-18T05:07:19.928Z,101519.91
2019-02-18T05:12:22.610Z,101522.09
2019-02-18T05:17:25.298Z,101524.23
2019-02-18T05:22:28.004Z,101519.05
2019-02-18T05:27:33.511Z,101516.45
2019-02-18T05:32:36.187Z,101516.47
2019-02-18T05:37:38.929Z,101523.86
2019-02-18T05:42:41.644Z,101521.67
2019-02-18T05:47:44.355Z,101522.13
2019-02-18T05:52:47.075Z,101518.23
2019-02-18T05:57:50.195Z,101523.42
2019-02-18T06:02:52.888Z,101519.11
2019-02-18T06:07:55.588Z,101526.89
2019-02-18T06:12:58.299Z,101526.45
2019-02-18T06:18:00.994Z,101518.23
2019-02-18T06:23:03.675Z,101519.55
2019-02-18T06:28:06.395Z,101517.80
2019-02-18T06:33:09.106Z,101535.53
2019-02-18T06:38:11.811Z,101527.32
2019-02-18T06:43:14.501Z,101523.84
2019-02-18T06:48:27.135Z,101529.48
2019-02-18T06:53:29.839Z,101525.56
2019-02-18T06:58:40.011Z,101529.89
2019-02-18T07:04:00.874Z,101529.02
2019-02-18T07:09:23.909Z,101540.27
2019-02-18T07:14:26.594Z,101536.39
2019-02-18T07:19:29.293Z,101533.74
2019-02-18T07:24:32.162Z,101539.31
2019-02-18T07:29:34.842Z,101538.92
2019-02-18T07:34:37.556Z,101531.13
2019-02-18T07:39:40.229Z,101535.02
2019-02-18T07:44:42.916Z,101537.61
2019-02-18T07:49:45.586Z,101525.02
2019-02-18T07:54:48.266Z,101531.08
2019-02-18T07:59:50.953Z,101529.74
2019-02-18T08:04:53.651Z,101528.81
2019-02-18T08:09:56.341Z,101521.80
2019-02-18T08:14:59.041Z,101535.08
2019-02-18T08:20:01.773Z,101527.11
2019-02-18T08:25:04.967Z,101530.00
2019-02-18T08:30:09.717Z,101536.31
2019-02-18T08:35:12.415Z,101526.95
2019-02-18T08:40:21.957Z,101527.19
2019-02-18T08:45:19.743Z,101521.30
2019-02-18T08:50:22.544Z,101523.23
2019-02-18T08:55:25.233Z,101507.70
2019-02-18T09:00:27.932Z,101499.50
2019-02-18T09:05:30.707Z,101498.70
2019-02-18T09:10:34.082Z,101497.95
2019-02-18T09:15:36.935Z,101495.48
2019-02-18T09:20:39.658Z,101496.41
2019-02-18T09:25:50.430Z,101485.16
2019-02-18T09:30:54.862Z,101487.20
2019-02-18T09:35:57.544Z,101475.45
2019-02-18T09:41:00.250Z,101473.62
2019-02-18T09:46:03.409Z,101474.02
2019-02-18T09:51:06.132Z,101471.25
2019-02-18T09:56:08.805Z,101464.19
2019-02-18T10:01:11.494Z,101459.98
2019-02-18T10:06:14.174Z,101454.27
2019-02-18T10:11:16.885Z,101457.00
2019-02-18T10:16:19.574Z,101447.27
2019-02-18T10:21:22.307Z,101438.34
2019-02-18T10:26:25.005Z,101440.89
2019-02-18T10:31:27.685Z,101430.36
2019-02-18T10:36:30.410Z,101432.48
2019-02-18T10:41:33.123Z,101431.33
2019-02-18T10:46:36.682Z,101419.91
2019-02-18T10:51:39.391Z,101418.46
2019-02-18T10:56:42.496Z,101406.19
2019-02-18T11:01:45.220Z,101398.36
2019-02-18T11:06:47.923Z,101392.48
2019-02-18T11:11:50.635Z,101389.22
2019-02-18T11:16:53.326Z,101382.85
2019-02-18T11:21:56.032Z,101380.00
2019-02-18T11:26:58.788Z,101372.98
2019-02-18T11:32:01.784Z,101375.81
2019-02-18T11:37:04.517Z,101364.56
2019-02-18T11:42:07.222Z,101348.98
2019-02-18T11:47:09.983Z,101344.39
2019-02-18T11:52:12.690Z,101337.08
2019-02-18T11:57:15.410Z,101331.43
2019-02-18T12:02:18.131Z,101323.58
2019-02-18T12:07:20.900Z,101317.41
2019-02-18T12:12:23.659Z,101311.44
2019-02-18T12:17:26.393Z,101307.26
2019-02-18T12:22:29.130Z,101299.61
2019-02-18T12:27:32.238Z,101295.23
2019-02-18T12:32:35.335Z,101290.96
2019-02-18T12:37:38.077Z,101290.58
2019-02-18T12:42:42.442Z,101285.02
2019-02-18T12:47:45.477Z,101270.87
2019-02-18T12:52:48.174Z,101257.07
2019-02-18T12:57:51.279Z,101249.25
2019-02-18T13:02:53.976Z,101235.41
2019-02-18T13:07:56.670Z,101234.38
2019-02-18T13:12:59.692Z,101228.11
2019-02-18T13:23:05.476Z,101215.38
2019-02-18T13:28:08.736Z,101215.20
2019-02-18T13:33:11.686Z,101199.05
2019-02-18T13:38:14.482Z,101185.72
2019-02-18T13:43:17.167Z,101184.09
2019-02-18T13:48:19.876Z,101183.95
2019-02-18T13:53:22.767Z,101179.73
2019-02-18T13:58:25.467Z,101175.94
2019-02-18T14:03:28.177Z,101168.87
2019-02-18T14:08:30.868Z,101166.17
2019-02-18T14:13:33.565Z,101163.36
2019-02-18T14:18:36.559Z,101164.14
2019-02-18T14:23:39.289Z,101158.76
2019-02-18T14:28:41.995Z,101159.56
2019-02-18T14:33:44.682Z,101154.04
2019-02-18T14:38:47.667Z,101146.27
2019-02-18T14:43:50.762Z,101134.16
2019-02-18T14:48:53.551Z,101139.60
2019-02-18T14:53:56.550Z,101136.55
2019-02-18T14:58:59.253Z,101130.91
2019-02-18T15:04:01.971Z,101141.77
2019-02-18T15:09:05.360Z,101136.57
2019-02-18T15:14:08.283Z,101127.11
2019-02-18T15:19:10.962Z,101128.81
2019-02-18T15:24:13.694Z,101115.06
2019-02-18T15:29:17.176Z,101117.56
2019-02-18T15:34:20.860Z,101099.14
2019-02-18T15:39:27.745Z,101096.81
2019-02-18T15:44:30.680Z,101088.82
2019-02-18T15:49:33.522Z,101090.98
2019-02-18T15:54:36.545Z,101084.95
2019-02-18T15:59:39.723Z,101074.61
2019-02-18T16:04:42.569Z,101074.61
2019-02-18T16:09:47.783Z,101068.62
2019-02-18T16:14:50.765Z,101073.50
2019-02-18T16:19:54.012Z,101065.64
2019-02-18T16:25:08.379Z,101060.47
2019-02-18T16:30:13.964Z,101069.83
2019-02-18T16:40:51.443Z,101043.09
2019-02-18T16:45:54.613Z,101053.78
2019-02-18T16:50:59.801Z,101046.75
2019-02-18T16:56:06.751Z,101041.66
2019-02-18T17:01:16.918Z,101033.16
2019-02-18T17:06:21.152Z,101037.03
2019-02-18T17:11:25.984Z,101036.86
2019-02-18T17:16:30.903Z,101034.53
2019-02-18T17:21:39.366Z,101034.28
2019-02-18T17:26:54.270Z,101033.22
2019-02-18T17:32:02.263Z,101030.52
2019-02-18T17:37:08.390Z,101022.92
2019-02-18T17:42:17.194Z,101027.80
2019-02-18T17:47:23.818Z,101037.41
2019-02-18T17:52:30.251Z,101026.67
2019-02-18T17:57:37.588Z,101019.91
2019-02-18T18:02:42.948Z,101013.39
2019-02-18T18:07:48.495Z,101021.06
2019-02-18T18:12:53.666Z,101014.73
2019-02-18T18:17:57.323Z,101014.23
2019-02-18T18:23:01.136Z,101008.70
2019-02-18T18:28:05.380Z,101012.16
2019-02-18T18:33:10.282Z,101010.06
2019-02-18T18:38:14.720Z,101009.30
2019-02-18T18:43:33.552Z,101007.44
2019-02-18T18:48:37.231Z,101000.98
2019-02-18T18:53:40.728Z,101004.42
2019-02-18T18:58:45.631Z,100997.24
2019-02-18T19:03:48.377Z,100995.09
2019-02-18T19:08:51.089Z,100998.83
2019-02-18T19:13:53.782Z,101010.09
2019-02-18T19:18:56.475Z,101016.51
2019-02-18T19:23:59.279Z,101007.95
2019-02-18T19:29:02.111Z,101006.95
2019-02-18T19:34:04.873Z,101006.72
2019-02-18T19:39:07.857Z,101008.42
2019-02-18T19:44:10.578Z,101001.69
2019-02-18T19:49:13.265Z,100995.73
2019-02-18T19:54:16.081Z,100993.55
2019-02-18T19:59:18.906Z,101002.02
2019-02-18T20:04:21.839Z,100993.92
2019-02-18T20:09:24.624Z,100998.19
2019-02-18T20:14:27.401Z,101004.83
2019-02-18T20:19:30.131Z,101014.28
2019-02-18T20:24:32.892Z,101001.10
2019-02-18T20:29:35.669Z,101001.16
2019-02-18T20:34:38.403Z,101006.61
2019-02-18T20:39:41.197Z,100999.05
2019-02-18T20:44:43.901Z,100995.03
2019-02-18T20:49:47.022Z,100998.75
2019-02-18T20:54:49.699Z,100993.30
2019-02-18T20:59:52.398Z,100996.41
2019-02-18T21:04:55.094Z,100990.91
2019-02-18T21:09:57.966Z,100996.02
2019-02-18T21:15:01.059Z,100994.61
2019-02-18T21:20:04.504Z,100999.92
2019-02-18T21:25:07.468Z,100997.86
2019-02-18T21:30:11.052Z,101002.84
2019-02-18T21:35:13.735Z,100993.94
2019-02-18T21:40:16.819Z,101000.31
2019-02-18T21:45:19.523Z,100994.03
2019-02-18T21:50:22.193Z,101001.78
2019-02-18T21:55:24.861Z,100998.44
2019-02-18T22:00:27.582Z,100996.55
2019-02-18T22:05:30.447Z,101000.95
2019-02-18T22:10:33.135Z,101006.52
2019-02-18T22:15:35.814Z,100998.86
2019-02-18T22:20:38.495Z,100996.20
2019-02-18T22:25:41.178Z,101000.33
2019-02-18T22:30:43.939Z,101000.95
2019-02-18T22:35:46.618Z,101004.38
2019-02-18T22:40:49.314Z,100995.72
2019-02-18T22:45:52.394Z,100988.54
2019-02-18T22:50:55.087Z,100998.95
2019-02-18T22:55:57.765Z,101000.70
2019-02-18T23:01:01.697Z,100996.13
2019-02-18T23:06:04.517Z,100991.44
2019-02-18T23:11:07.204Z,100981.89
2019-02-18T23:16:09.892Z,100977.49
2019-02-18T23:21:12.617Z,100971.20
2019-02-18T23:26:15.805Z,100971.69
2019-02-18T23:31:18.499Z,100980.53
2019-02-18T23:36:21.172Z,100980.41
2019-02-18T23:41:23.831Z,100989.69
2019-02-18T23:46:26.522Z,100992.41
2019-02-18T23:51:29.218Z,100992.86
2019-02-18T23:56:31.922Z,100989.96
